sensor_id;sensor_type;location;lat;lon;timestamp;P1;durP1;ratioP1;P2;durP2;ratioP2
27899;SDS011;15243;50.726;7.080;2023-07-22T00:00:08;19.42;;;9.30;;
27899;SDS011;15243;50.726;7.080;2023-07-22T00:02:41;19.67;;;9.82;;
27899;SDS011;15243;50.726;7.080;2023-07-22T00:05:09;14.93;;;9.07;;
27899;SDS011;15243;50.726;7.080;2023-07-22T00:07:39;14.85;;;8.63;;
27899;SDS011;15243;50.726;7.080;2023-07-22T00:10:06;14.15;;;9.30;;
27899;SDS011;15243;50.726;7.080;2023-07-22T00:12:34;14.52;;;8.52;;
27899;SDS011;15243;50.726;7.080;2023-07-22T00:15:01;17.00;;;9.57;;
27899;SDS011;15243;50.726;7.080;2023-07-22T00:17:28;12.77;;;8.73;;
27899;SDS011;15243;50.726;7.080;2023-07-22T00:19:56;15.65;;;9.65;;
27899;SDS011;15243;50.726;7.080;2023-07-22T00:22:23;13.73;;;8.13;;
27899;SDS011;15243;50.726;7.080;2023-07-22T00:24:52;14.45;;;9.65;;
27899;SDS011;15243;50.726;7.080;2023-07-22T00:27:19;15.90;;;8.60;;
27899;SDS011;15243;50.726;7.080;2023-07-22T00:29:46;19.15;;;9.85;;
27899;SDS011;15243;50.726;7.080;2023-07-22T00:32:13;10.60;;;7.95;;
27899;SDS011;15243;50.726;7.080;2023-07-22T00:34:40;15.75;;;9.38;;
27899;SDS011;15243;50.726;7.080;2023-07-22T00:37:07;11.73;;;7.88;;
27899;SDS011;15243;50.726;7.080;2023-07-22T00:39:34;12.77;;;8.20;;
27899;SDS011;15243;50.726;7.080;2023-07-22T00:42:01;14.55;;;8.88;;
27899;SDS011;15243;50.726;7.080;2023-07-22T00:44:29;17.50;;;9.38;;
27899;SDS011;15243;50.726;7.080;2023-07-22T00:46:56;14.13;;;8.40;;
27899;SDS011;15243;50.726;7.080;2023-07-22T00:49:25;10.75;;;8.13;;
27899;SDS011;15243;50.726;7.080;2023-07-22T00:51:54;16.38;;;9.02;;
27899;SDS011;15243;50.726;7.080;2023-07-22T00:54:26;15.27;;;8.77;;
27899;SDS011;15243;50.726;7.080;2023-07-22T00:56:53;12.40;;;8.73;;
27899;SDS011;15243;50.726;7.080;2023-07-22T00:59:21;13.25;;;8.88;;
27899;SDS011;15243;50.726;7.080;2023-07-22T01:01:48;20.35;;;8.82;;
27899;SDS011;15243;50.726;7.080;2023-07-22T01:04:16;15.32;;;8.73;;
27899;SDS011;15243;50.726;7.080;2023-07-22T01:06:49;12.35;;;8.45;;
27899;SDS011;15243;50.726;7.080;2023-07-22T01:09:25;16.40;;;9.30;;
27899;SDS011;15243;50.726;7.080;2023-07-22T01:11:52;15.52;;;9.75;;
27899;SDS011;15243;50.726;7.080;2023-07-22T01:14:19;18.30;;;8.73;;
27899;SDS011;15243;50.726;7.080;2023-07-22T01:16:46;15.30;;;10.02;;
27899;SDS011;15243;50.726;7.080;2023-07-22T01:19:13;14.07;;;9.13;;
27899;SDS011;15243;50.726;7.080;2023-07-22T01:21:45;12.45;;;8.60;;
27899;SDS011;15243;50.726;7.080;2023-07-22T01:24:13;17.45;;;9.77;;
27899;SDS011;15243;50.726;7.080;2023-07-22T01:26:42;13.13;;;8.90;;
27899;SDS011;15243;50.726;7.080;2023-07-22T01:29:08;16.08;;;8.80;;
27899;SDS011;15243;50.726;7.080;2023-07-22T01:31:36;16.80;;;9.75;;
27899;SDS011;15243;50.726;7.080;2023-07-22T01:34:04;12.90;;;9.45;;
27899;SDS011;15243;50.726;7.080;2023-07-22T01:36:31;14.85;;;9.40;;
27899;SDS011;15243;50.726;7.080;2023-07-22T01:38:58;12.75;;;8.93;;
27899;SDS011;15243;50.726;7.080;2023-07-22T01:41:26;18.27;;;9.68;;
27899;SDS011;15243;50.726;7.080;2023-07-22T01:43:54;17.73;;;10.63;;
27899;SDS011;15243;50.726;7.080;2023-07-22T01:46:21;15.70;;;9.13;;
27899;SDS011;15243;50.726;7.080;2023-07-22T01:48:48;20.08;;;10.35;;
27899;SDS011;15243;50.726;7.080;2023-07-22T01:51:16;13.10;;;8.77;;
27899;SDS011;15243;50.726;7.080;2023-07-22T01:53:43;12.05;;;9.07;;
27899;SDS011;15243;50.726;7.080;2023-07-22T01:56:10;11.35;;;8.27;;
27899;SDS011;15243;50.726;7.080;2023-07-22T01:58:37;13.13;;;9.38;;
27899;SDS011;15243;50.726;7.080;2023-07-22T02:01:04;19.33;;;9.55;;
27899;SDS011;15243;50.726;7.080;2023-07-22T02:03:31;18.17;;;9.82;;
27899;SDS011;15243;50.726;7.080;2023-07-22T02:06:02;15.23;;;9.32;;
27899;SDS011;15243;50.726;7.080;2023-07-22T02:08:30;12.48;;;9.02;;
27899;SDS011;15243;50.726;7.080;2023-07-22T02:11:04;15.80;;;9.05;;
27899;SDS011;15243;50.726;7.080;2023-07-22T02:13:33;16.05;;;9.98;;
27899;SDS011;15243;50.726;7.080;2023-07-22T02:16:02;14.88;;;9.02;;
27899;SDS011;15243;50.726;7.080;2023-07-22T02:18:30;14.77;;;9.13;;
27899;SDS011;15243;50.726;7.080;2023-07-22T02:20:57;14.18;;;9.18;;
27899;SDS011;15243;50.726;7.080;2023-07-22T02:23:24;15.65;;;10.05;;
27899;SDS011;15243;50.726;7.080;2023-07-22T02:25:52;19.60;;;10.45;;
27899;SDS011;15243;50.726;7.080;2023-07-22T02:28:20;14.90;;;9.38;;
27899;SDS011;15243;50.726;7.080;2023-07-22T02:30:53;13.57;;;8.90;;
27899;SDS011;15243;50.726;7.080;2023-07-22T02:33:21;13.25;;;8.73;;
27899;SDS011;15243;50.726;7.080;2023-07-22T02:35:51;14.23;;;9.73;;
27899;SDS011;15243;50.726;7.080;2023-07-22T02:38:18;12.63;;;8.82;;
27899;SDS011;15243;50.726;7.080;2023-07-22T02:40:45;20.70;;;10.65;;
27899;SDS011;15243;50.726;7.080;2023-07-22T02:43:12;17.38;;;8.57;;
27899;SDS011;15243;50.726;7.080;2023-07-22T02:45:40;13.82;;;9.68;;
27899;SDS011;15243;50.726;7.080;2023-07-22T02:48:07;14.23;;;9.30;;
27899;SDS011;15243;50.726;7.080;2023-07-22T02:50:35;17.33;;;9.25;;
27899;SDS011;15243;50.726;7.080;2023-07-22T02:53:03;13.32;;;8.95;;
27899;SDS011;15243;50.726;7.080;2023-07-22T02:55:30;14.02;;;8.80;;
27899;SDS011;15243;50.726;7.080;2023-07-22T02:57:57;14.10;;;8.82;;
27899;SDS011;15243;50.726;7.080;2023-07-22T03:00:24;11.75;;;7.78;;
27899;SDS011;15243;50.726;7.080;2023-07-22T03:02:51;16.75;;;8.90;;
27899;SDS011;15243;50.726;7.080;2023-07-22T03:05:20;13.45;;;9.05;;
27899;SDS011;15243;50.726;7.080;2023-07-22T03:07:47;16.63;;;9.10;;
27899;SDS011;15243;50.726;7.080;2023-07-22T03:10:14;16.10;;;9.15;;
27899;SDS011;15243;50.726;7.080;2023-07-22T03:12:41;12.05;;;8.63;;
27899;SDS011;15243;50.726;7.080;2023-07-22T03:15:09;16.55;;;10.27;;
27899;SDS011;15243;50.726;7.080;2023-07-22T03:17:36;14.75;;;10.18;;
27899;SDS011;15243;50.726;7.080;2023-07-22T03:20:05;14.85;;;9.52;;
27899;SDS011;15243;50.726;7.080;2023-07-22T03:22:40;14.18;;;8.68;;
27899;SDS011;15243;50.726;7.080;2023-07-22T03:25:08;14.32;;;9.52;;
27899;SDS011;15243;50.726;7.080;2023-07-22T03:27:36;13.77;;;9.18;;
27899;SDS011;15243;50.726;7.080;2023-07-22T03:30:04;15.73;;;9.57;;
27899;SDS011;15243;50.726;7.080;2023-07-22T03:32:41;16.00;;;9.90;;
27899;SDS011;15243;50.726;7.080;2023-07-22T03:35:09;16.52;;;9.07;;
27899;SDS011;15243;50.726;7.080;2023-07-22T03:37:38;16.10;;;10.50;;
27899;SDS011;15243;50.726;7.080;2023-07-22T03:40:06;15.38;;;9.35;;
27899;SDS011;15243;50.726;7.080;2023-07-22T03:42:40;17.00;;;10.48;;
27899;SDS011;15243;50.726;7.080;2023-07-22T03:45:07;16.40;;;10.27;;
27899;SDS011;15243;50.726;7.080;2023-07-22T03:47:38;19.67;;;9.90;;
27899;SDS011;15243;50.726;7.080;2023-07-22T03:50:06;17.55;;;10.05;;
27899;SDS011;15243;50.726;7.080;2023-07-22T03:52:36;16.40;;;9.90;;
27899;SDS011;15243;50.726;7.080;2023-07-22T03:55:04;14.18;;;9.15;;
27899;SDS011;15243;50.726;7.080;2023-07-22T03:57:31;14.90;;;9.73;;
27899;SDS011;15243;50.726;7.080;2023-07-22T03:59:58;17.48;;;9.85;;
27899;SDS011;15243;50.726;7.080;2023-07-22T04:02:27;13.90;;;9.18;;
27899;SDS011;15243;50.726;7.080;2023-07-22T04:04:54;13.45;;;8.82;;
27899;SDS011;15243;50.726;7.080;2023-07-22T04:07:21;13.23;;;9.13;;
27899;SDS011;15243;50.726;7.080;2023-07-22T04:09:49;14.95;;;9.23;;
27899;SDS011;15243;50.726;7.080;2023-07-22T04:12:17;16.20;;;9.30;;
27899;SDS011;15243;50.726;7.080;2023-07-22T04:14:45;18.42;;;10.68;;
27899;SDS011;15243;50.726;7.080;2023-07-22T04:17:11;15.90;;;9.55;;
27899;SDS011;15243;50.726;7.080;2023-07-22T04:19:41;14.77;;;9.82;;
27899;SDS011;15243;50.726;7.080;2023-07-22T04:22:10;17.95;;;10.82;;
27899;SDS011;15243;50.726;7.080;2023-07-22T04:24:37;17.23;;;10.80;;
27899;SDS011;15243;50.726;7.080;2023-07-22T04:27:04;16.40;;;10.60;;
27899;SDS011;15243;50.726;7.080;2023-07-22T04:29:31;15.00;;;9.27;;
27899;SDS011;15243;50.726;7.080;2023-07-22T04:31:59;17.02;;;9.80;;
27899;SDS011;15243;50.726;7.080;2023-07-22T04:34:28;12.98;;;8.88;;
27899;SDS011;15243;50.726;7.080;2023-07-22T04:36:58;15.75;;;10.07;;
27899;SDS011;15243;50.726;7.080;2023-07-22T04:39:25;15.40;;;9.55;;
27899;SDS011;15243;50.726;7.080;2023-07-22T04:41:52;15.75;;;9.00;;
27899;SDS011;15243;50.726;7.080;2023-07-22T04:44:19;15.25;;;9.80;;
27899;SDS011;15243;50.726;7.080;2023-07-22T04:46:46;15.50;;;8.77;;
27899;SDS011;15243;50.726;7.080;2023-07-22T04:49:14;14.90;;;9.02;;
27899;SDS011;15243;50.726;7.080;2023-07-22T04:51:45;14.38;;;9.75;;
27899;SDS011;15243;50.726;7.080;2023-07-22T04:54:13;12.85;;;8.20;;
27899;SDS011;15243;50.726;7.080;2023-07-22T04:56:41;15.07;;;9.43;;
27899;SDS011;15243;50.726;7.080;2023-07-22T04:59:09;15.75;;;9.15;;
27899;SDS011;15243;50.726;7.080;2023-07-22T05:01:36;14.15;;;9.07;;
27899;SDS011;15243;50.726;7.080;2023-07-22T05:04:03;13.48;;;9.38;;
27899;SDS011;15243;50.726;7.080;2023-07-22T05:06:31;13.93;;;8.63;;
27899;SDS011;15243;50.726;7.080;2023-07-22T05:08:59;15.75;;;9.07;;
27899;SDS011;15243;50.726;7.080;2023-07-22T05:11:26;14.63;;;9.02;;
27899;SDS011;15243;50.726;7.080;2023-07-22T05:13:53;12.52;;;8.75;;
27899;SDS011;15243;50.726;7.080;2023-07-22T05:16:20;11.98;;;8.25;;
27899;SDS011;15243;50.726;7.080;2023-07-22T05:18:48;14.32;;;8.00;;
27899;SDS011;15243;50.726;7.080;2023-07-22T05:21:15;20.08;;;8.82;;
27899;SDS011;15243;50.726;7.080;2023-07-22T05:23:42;13.55;;;8.32;;
27899;SDS011;15243;50.726;7.080;2023-07-22T05:26:10;17.67;;;9.25;;
27899;SDS011;15243;50.726;7.080;2023-07-22T05:28:37;12.52;;;7.93;;
27899;SDS011;15243;50.726;7.080;2023-07-22T05:31:04;13.25;;;8.18;;
27899;SDS011;15243;50.726;7.080;2023-07-22T05:33:32;11.68;;;7.65;;
27899;SDS011;15243;50.726;7.080;2023-07-22T05:35:59;12.88;;;7.75;;
27899;SDS011;15243;50.726;7.080;2023-07-22T05:38:25;13.95;;;8.02;;
27899;SDS011;15243;50.726;7.080;2023-07-22T05:40:53;12.50;;;7.03;;
27899;SDS011;15243;50.726;7.080;2023-07-22T05:43:20;14.73;;;8.30;;
27899;SDS011;15243;50.726;7.080;2023-07-22T05:45:48;12.27;;;7.75;;
27899;SDS011;15243;50.726;7.080;2023-07-22T05:48:15;14.63;;;8.15;;
27899;SDS011;15243;50.726;7.080;2023-07-22T05:50:42;16.45;;;7.40;;
27899;SDS011;15243;50.726;7.080;2023-07-22T05:53:10;9.25;;;6.93;;
27899;SDS011;15243;50.726;7.080;2023-07-22T05:55:39;11.02;;;7.20;;
27899;SDS011;15243;50.726;7.080;2023-07-22T05:58:14;10.25;;;6.90;;
27899;SDS011;15243;50.726;7.080;2023-07-22T06:00:42;15.15;;;7.32;;
27899;SDS011;15243;50.726;7.080;2023-07-22T06:03:09;11.70;;;7.28;;
27899;SDS011;15243;50.726;7.080;2023-07-22T06:05:36;11.73;;;7.70;;
27899;SDS011;15243;50.726;7.080;2023-07-22T06:08:03;12.32;;;6.85;;
27899;SDS011;15243;50.726;7.080;2023-07-22T06:10:31;11.90;;;6.50;;
27899;SDS011;15243;50.726;7.080;2023-07-22T06:12:58;14.27;;;7.63;;
27899;SDS011;15243;50.726;7.080;2023-07-22T06:15:25;9.45;;;7.05;;
27899;SDS011;15243;50.726;7.080;2023-07-22T06:17:54;12.20;;;7.00;;
27899;SDS011;15243;50.726;7.080;2023-07-22T06:20:21;12.68;;;7.13;;
27899;SDS011;15243;50.726;7.080;2023-07-22T06:22:49;11.75;;;7.05;;
27899;SDS011;15243;50.726;7.080;2023-07-22T06:25:16;10.35;;;6.88;;
27899;SDS011;15243;50.726;7.080;2023-07-22T06:27:43;9.90;;;6.95;;
27899;SDS011;15243;50.726;7.080;2023-07-22T06:30:10;9.95;;;6.75;;
27899;SDS011;15243;50.726;7.080;2023-07-22T06:32:38;8.77;;;6.18;;
27899;SDS011;15243;50.726;7.080;2023-07-22T06:35:06;9.55;;;6.60;;
27899;SDS011;15243;50.726;7.080;2023-07-22T06:37:33;8.18;;;6.13;;
27899;SDS011;15243;50.726;7.080;2023-07-22T06:40:00;10.20;;;5.78;;
27899;SDS011;15243;50.726;7.080;2023-07-22T06:42:29;9.25;;;5.70;;
27899;SDS011;15243;50.726;7.080;2023-07-22T06:44:56;8.35;;;5.80;;
27899;SDS011;15243;50.726;7.080;2023-07-22T06:47:23;10.05;;;6.00;;
27899;SDS011;15243;50.726;7.080;2023-07-22T06:49:50;12.23;;;6.20;;
27899;SDS011;15243;50.726;7.080;2023-07-22T06:52:17;10.15;;;6.78;;
27899;SDS011;15243;50.726;7.080;2023-07-22T06:54:44;9.20;;;6.18;;
27899;SDS011;15243;50.726;7.080;2023-07-22T06:57:12;10.60;;;6.35;;
27899;SDS011;15243;50.726;7.080;2023-07-22T06:59:39;10.23;;;5.80;;
27899;SDS011;15243;50.726;7.080;2023-07-22T07:02:06;9.98;;;6.63;;
27899;SDS011;15243;50.726;7.080;2023-07-22T07:04:33;9.50;;;5.93;;
27899;SDS011;15243;50.726;7.080;2023-07-22T07:07:00;9.40;;;5.82;;
27899;SDS011;15243;50.726;7.080;2023-07-22T07:09:28;9.05;;;5.85;;
27899;SDS011;15243;50.726;7.080;2023-07-22T07:11:55;8.77;;;5.88;;
27899;SDS011;15243;50.726;7.080;2023-07-22T07:14:23;7.68;;;5.65;;
27899;SDS011;15243;50.726;7.080;2023-07-22T07:16:54;8.77;;;5.93;;
27899;SDS011;15243;50.726;7.080;2023-07-22T07:19:22;9.07;;;6.15;;
27899;SDS011;15243;50.726;7.080;2023-07-22T07:21:49;9.45;;;5.63;;
27899;SDS011;15243;50.726;7.080;2023-07-22T07:24:16;6.53;;;5.35;;
27899;SDS011;15243;50.726;7.080;2023-07-22T07:26:43;10.50;;;5.85;;
27899;SDS011;15243;50.726;7.080;2023-07-22T07:29:10;6.60;;;5.15;;
27899;SDS011;15243;50.726;7.080;2023-07-22T07:31:42;8.63;;;5.60;;
27899;SDS011;15243;50.726;7.080;2023-07-22T07:34:09;12.43;;;6.15;;
27899;SDS011;15243;50.726;7.080;2023-07-22T07:36:36;7.18;;;4.72;;
27899;SDS011;15243;50.726;7.080;2023-07-22T07:39:03;9.23;;;5.30;;
27899;SDS011;15243;50.726;7.080;2023-07-22T07:41:30;7.47;;;5.55;;
27899;SDS011;15243;50.726;7.080;2023-07-22T07:43:57;8.23;;;5.18;;
27899;SDS011;15243;50.726;7.080;2023-07-22T07:46:28;15.40;;;5.78;;
27899;SDS011;15243;50.726;7.080;2023-07-22T07:48:57;8.82;;;5.43;;
27899;SDS011;15243;50.726;7.080;2023-07-22T07:51:28;5.68;;;4.97;;
27899;SDS011;15243;50.726;7.080;2023-07-22T07:53:56;7.03;;;5.07;;
27899;SDS011;15243;50.726;7.080;2023-07-22T07:56:25;7.80;;;5.32;;
27899;SDS011;15243;50.726;7.080;2023-07-22T07:58:53;8.40;;;5.70;;
27899;SDS011;15243;50.726;7.080;2023-07-22T08:01:20;8.02;;;5.38;;
27899;SDS011;15243;50.726;7.080;2023-07-22T08:03:48;6.93;;;5.18;;
27899;SDS011;15243;50.726;7.080;2023-07-22T08:06:15;6.72;;;5.32;;
27899;SDS011;15243;50.726;7.080;2023-07-22T08:08:45;10.77;;;6.03;;
27899;SDS011;15243;50.726;7.080;2023-07-22T08:11:13;7.32;;;5.20;;
27899;SDS011;15243;50.726;7.080;2023-07-22T08:13:41;8.63;;;5.15;;
27899;SDS011;15243;50.726;7.080;2023-07-22T08:16:10;10.57;;;5.88;;
27899;SDS011;15243;50.726;7.080;2023-07-22T08:18:39;9.40;;;6.07;;
27899;SDS011;15243;50.726;7.080;2023-07-22T08:21:07;8.80;;;5.28;;
27899;SDS011;15243;50.726;7.080;2023-07-22T08:23:34;11.82;;;5.78;;
27899;SDS011;15243;50.726;7.080;2023-07-22T08:26:03;7.45;;;5.57;;
27899;SDS011;15243;50.726;7.080;2023-07-22T08:28:32;9.43;;;5.70;;
27899;SDS011;15243;50.726;7.080;2023-07-22T08:31:00;8.20;;;5.70;;
27899;SDS011;15243;50.726;7.080;2023-07-22T08:33:28;9.35;;;5.95;;
27899;SDS011;15243;50.726;7.080;2023-07-22T08:36:07;9.95;;;5.70;;
27899;SDS011;15243;50.726;7.080;2023-07-22T08:38:35;10.52;;;5.78;;
27899;SDS011;15243;50.726;7.080;2023-07-22T08:41:02;7.75;;;5.43;;
27899;SDS011;15243;50.726;7.080;2023-07-22T08:43:29;7.30;;;5.63;;
27899;SDS011;15243;50.726;7.080;2023-07-22T08:46:00;7.70;;;4.85;;
27899;SDS011;15243;50.726;7.080;2023-07-22T08:48:31;6.25;;;4.88;;
27899;SDS011;15243;50.726;7.080;2023-07-22T08:51:04;6.10;;;4.70;;
27899;SDS011;15243;50.726;7.080;2023-07-22T08:53:36;7.75;;;3.90;;
27899;SDS011;15243;50.726;7.080;2023-07-22T08:56:04;6.28;;;4.70;;
27899;SDS011;15243;50.726;7.080;2023-07-22T08:58:31;6.88;;;4.18;;
27899;SDS011;15243;50.726;7.080;2023-07-22T09:01:00;4.70;;;4.20;;
27899;SDS011;15243;50.726;7.080;2023-07-22T09:03:28;5.35;;;3.72;;
27899;SDS011;15243;50.726;7.080;2023-07-22T09:05:55;4.50;;;3.70;;
27899;SDS011;15243;50.726;7.080;2023-07-22T09:08:23;5.60;;;3.50;;
27899;SDS011;15243;50.726;7.080;2023-07-22T09:10:50;5.82;;;3.90;;
27899;SDS011;15243;50.726;7.080;2023-07-22T09:13:17;6.18;;;3.42;;
27899;SDS011;15243;50.726;7.080;2023-07-22T09:15:46;4.32;;;3.35;;
27899;SDS011;15243;50.726;7.080;2023-07-22T09:18:16;5.13;;;3.35;;
27899;SDS011;15243;50.726;7.080;2023-07-22T09:20:43;6.82;;;4.25;;
27899;SDS011;15243;50.726;7.080;2023-07-22T09:23:10;6.30;;;3.83;;
27899;SDS011;15243;50.726;7.080;2023-07-22T09:25:40;6.63;;;3.85;;
27899;SDS011;15243;50.726;7.080;2023-07-22T09:28:08;4.88;;;3.60;;
27899;SDS011;15243;50.726;7.080;2023-07-22T09:30:37;5.25;;;3.45;;
27899;SDS011;15243;50.726;7.080;2023-07-22T09:33:19;5.35;;;3.65;;
27899;SDS011;15243;50.726;7.080;2023-07-22T09:35:48;5.13;;;3.95;;
27899;SDS011;15243;50.726;7.080;2023-07-22T09:38:25;4.63;;;3.45;;
27899;SDS011;15243;50.726;7.080;2023-07-22T09:40:52;4.97;;;3.70;;
27899;SDS011;15243;50.726;7.080;2023-07-22T09:43:21;5.88;;;3.80;;
27899;SDS011;15243;50.726;7.080;2023-07-22T09:45:50;9.05;;;4.07;;
27899;SDS011;15243;50.726;7.080;2023-07-22T09:48:17;4.40;;;3.15;;
27899;SDS011;15243;50.726;7.080;2023-07-22T09:50:44;5.50;;;3.50;;
27899;SDS011;15243;50.726;7.080;2023-07-22T09:53:14;5.63;;;3.20;;
27899;SDS011;15243;50.726;7.080;2023-07-22T09:55:43;4.47;;;2.90;;
27899;SDS011;15243;50.726;7.080;2023-07-22T09:58:10;3.50;;;2.90;;
27899;SDS011;15243;50.726;7.080;2023-07-22T10:00:42;3.85;;;3.25;;
27899;SDS011;15243;50.726;7.080;2023-07-22T10:03:17;6.65;;;3.55;;
27899;SDS011;15243;50.726;7.080;2023-07-22T10:05:46;5.50;;;3.15;;
27899;SDS011;15243;50.726;7.080;2023-07-22T10:08:17;5.40;;;3.50;;
27899;SDS011;15243;50.726;7.080;2023-07-22T10:10:46;3.47;;;3.05;;
27899;SDS011;15243;50.726;7.080;2023-07-22T10:13:13;6.10;;;3.33;;
27899;SDS011;15243;50.726;7.080;2023-07-22T10:15:41;3.38;;;2.90;;
27899;SDS011;15243;50.726;7.080;2023-07-22T10:18:08;3.90;;;2.80;;
27899;SDS011;15243;50.726;7.080;2023-07-22T10:20:37;3.83;;;2.88;;
27899;SDS011;15243;50.726;7.080;2023-07-22T10:23:06;3.88;;;2.97;;
27899;SDS011;15243;50.726;7.080;2023-07-22T10:25:35;3.72;;;3.17;;
27899;SDS011;15243;50.726;7.080;2023-07-22T10:28:04;5.93;;;2.85;;
27899;SDS011;15243;50.726;7.080;2023-07-22T10:30:32;3.47;;;2.67;;
27899;SDS011;15243;50.726;7.080;2023-07-22T10:33:00;2.97;;;2.17;;
27899;SDS011;15243;50.726;7.080;2023-07-22T10:38:13;2.60;;;2.20;;
27899;SDS011;15243;50.726;7.080;2023-07-22T10:40:45;2.55;;;1.80;;
27899;SDS011;15243;50.726;7.080;2023-07-22T10:43:17;2.85;;;1.95;;
27899;SDS011;15243;50.726;7.080;2023-07-22T10:45:50;6.88;;;1.75;;
27899;SDS011;15243;50.726;7.080;2023-07-22T10:48:19;4.28;;;1.60;;
27899;SDS011;15243;50.726;7.080;2023-07-22T10:50:49;1.98;;;1.60;;
27899;SDS011;15243;50.726;7.080;2023-07-22T11:12:11;2.10;;;1.90;;
27899;SDS011;15243;50.726;7.080;2023-07-22T11:14:49;2.72;;;1.80;;
27899;SDS011;15243;50.726;7.080;2023-07-22T11:17:28;1.70;;;1.60;;
27899;SDS011;15243;50.726;7.080;2023-07-22T11:19:57;1.95;;;1.67;;
27899;SDS011;15243;50.726;7.080;2023-07-22T11:22:25;2.28;;;1.80;;
27899;SDS011;15243;50.726;7.080;2023-07-22T11:24:55;2.38;;;1.80;;
27899;SDS011;15243;50.726;7.080;2023-07-22T11:27:25;2.78;;;1.60;;
27899;SDS011;15243;50.726;7.080;2023-07-22T11:29:52;2.45;;;1.70;;
27899;SDS011;15243;50.726;7.080;2023-07-22T11:32:20;2.20;;;1.73;;
27899;SDS011;15243;50.726;7.080;2023-07-22T11:34:51;3.05;;;1.70;;
27899;SDS011;15243;50.726;7.080;2023-07-22T11:37:19;1.83;;;1.73;;
27899;SDS011;15243;50.726;7.080;2023-07-22T11:39:46;1.60;;;1.50;;
27899;SDS011;15243;50.726;7.080;2023-07-22T11:42:13;1.60;;;1.50;;
27899;SDS011;15243;50.726;7.080;2023-07-22T11:44:43;2.33;;;1.77;;
27899;SDS011;15243;50.726;7.080;2023-07-22T13:12:18;2.45;;;2.20;;
27899;SDS011;15243;50.726;7.080;2023-07-22T13:14:45;2.55;;;2.10;;
27899;SDS011;15243;50.726;7.080;2023-07-22T13:17:12;2.70;;;2.33;;
27899;SDS011;15243;50.726;7.080;2023-07-22T13:19:39;4.25;;;2.80;;
27899;SDS011;15243;50.726;7.080;2023-07-22T13:22:06;3.97;;;2.50;;
27899;SDS011;15243;50.726;7.080;2023-07-22T13:24:33;2.55;;;2.15;;
27899;SDS011;15243;50.726;7.080;2023-07-22T13:27:01;4.90;;;2.17;;
27899;SDS011;15243;50.726;7.080;2023-07-22T13:29:28;4.38;;;2.78;;
27899;SDS011;15243;50.726;7.080;2023-07-22T13:31:55;3.88;;;2.45;;
27899;SDS011;15243;50.726;7.080;2023-07-22T13:34:22;3.30;;;2.72;;
27899;SDS011;15243;50.726;7.080;2023-07-22T13:36:49;6.07;;;2.92;;
27899;SDS011;15243;50.726;7.080;2023-07-22T13:39:16;4.68;;;2.65;;
27899;SDS011;15243;50.726;7.080;2023-07-22T13:41:43;6.55;;;2.65;;
27899;SDS011;15243;50.726;7.080;2023-07-22T13:44:10;4.18;;;2.40;;
27899;SDS011;15243;50.726;7.080;2023-07-22T13:46:37;3.72;;;2.22;;
27899;SDS011;15243;50.726;7.080;2023-07-22T13:49:04;2.72;;;2.47;;
27899;SDS011;15243;50.726;7.080;2023-07-22T13:51:31;3.22;;;2.70;;
27899;SDS011;15243;50.726;7.080;2023-07-22T13:53:58;3.45;;;2.55;;
27899;SDS011;15243;50.726;7.080;2023-07-22T13:56:25;2.80;;;2.50;;
27899;SDS011;15243;50.726;7.080;2023-07-22T13:58:53;3.42;;;2.88;;
27899;SDS011;15243;50.726;7.080;2023-07-22T14:01:21;4.38;;;2.78;;
27899;SDS011;15243;50.726;7.080;2023-07-22T14:03:48;3.42;;;2.92;;
27899;SDS011;15243;50.726;7.080;2023-07-22T14:06:16;2.97;;;2.67;;
27899;SDS011;15243;50.726;7.080;2023-07-22T14:08:43;3.88;;;2.75;;
27899;SDS011;15243;50.726;7.080;2023-07-22T14:11:10;3.90;;;3.00;;
27899;SDS011;15243;50.726;7.080;2023-07-22T14:13:37;4.28;;;2.80;;
27899;SDS011;15243;50.726;7.080;2023-07-22T14:16:04;3.35;;;2.60;;
27899;SDS011;15243;50.726;7.080;2023-07-22T14:18:48;3.25;;;2.65;;
27899;SDS011;15243;50.726;7.080;2023-07-22T14:21:14;4.35;;;2.60;;
27899;SDS011;15243;50.726;7.080;2023-07-22T14:23:41;3.15;;;2.60;;
27899;SDS011;15243;50.726;7.080;2023-07-22T14:26:10;3.95;;;2.63;;
27899;SDS011;15243;50.726;7.080;2023-07-22T14:28:37;4.40;;;2.78;;
27899;SDS011;15243;50.726;7.080;2023-07-22T14:31:04;3.25;;;2.95;;
27899;SDS011;15243;50.726;7.080;2023-07-22T14:33:31;3.65;;;2.72;;
27899;SDS011;15243;50.726;7.080;2023-07-22T14:35:58;4.53;;;3.30;;
27899;SDS011;15243;50.726;7.080;2023-07-22T14:38:24;3.65;;;3.10;;
27899;SDS011;15243;50.726;7.080;2023-07-22T14:40:52;3.70;;;2.65;;
27899;SDS011;15243;50.726;7.080;2023-07-22T14:43:19;3.75;;;2.90;;
27899;SDS011;15243;50.726;7.080;2023-07-22T14:45:48;3.53;;;2.75;;
27899;SDS011;15243;50.726;7.080;2023-07-22T14:48:15;3.47;;;3.03;;
27899;SDS011;15243;50.726;7.080;2023-07-22T14:50:42;5.07;;;3.15;;
27899;SDS011;15243;50.726;7.080;2023-07-22T14:53:10;4.00;;;3.10;;
27899;SDS011;15243;50.726;7.080;2023-07-22T14:55:37;4.68;;;3.25;;
27899;SDS011;15243;50.726;7.080;2023-07-22T14:58:05;4.60;;;3.55;;
27899;SDS011;15243;50.726;7.080;2023-07-22T15:00:33;4.28;;;3.53;;
27899;SDS011;15243;50.726;7.080;2023-07-22T15:03:00;4.70;;;3.28;;
27899;SDS011;15243;50.726;7.080;2023-07-22T15:05:27;5.35;;;3.22;;
27899;SDS011;15243;50.726;7.080;2023-07-22T15:07:54;4.57;;;3.70;;
27899;SDS011;15243;50.726;7.080;2023-07-22T15:10:21;4.03;;;3.38;;
27899;SDS011;15243;50.726;7.080;2023-07-22T15:12:48;5.38;;;3.92;;
27899;SDS011;15243;50.726;7.080;2023-07-22T15:15:16;3.47;;;3.10;;
27899;SDS011;15243;50.726;7.080;2023-07-22T15:17:44;5.30;;;3.65;;
27899;SDS011;15243;50.726;7.080;2023-07-22T15:20:11;5.13;;;4.10;;
27899;SDS011;15243;50.726;7.080;2023-07-22T15:22:38;7.97;;;4.20;;
27899;SDS011;15243;50.726;7.080;2023-07-22T15:25:06;7.93;;;4.13;;
27899;SDS011;15243;50.726;7.080;2023-07-22T15:27:33;5.80;;;3.92;;
27899;SDS011;15243;50.726;7.080;2023-07-22T15:30:00;5.07;;;3.70;;
27899;SDS011;15243;50.726;7.080;2023-07-22T15:32:27;5.43;;;4.15;;
27899;SDS011;15243;50.726;7.080;2023-07-22T15:34:54;4.97;;;4.18;;
27899;SDS011;15243;50.726;7.080;2023-07-22T15:37:21;5.88;;;4.20;;
27899;SDS011;15243;50.726;7.080;2023-07-22T15:39:48;5.53;;;4.57;;
27899;SDS011;15243;50.726;7.080;2023-07-22T15:42:15;7.95;;;4.55;;
27899;SDS011;15243;50.726;7.080;2023-07-22T15:44:43;4.97;;;4.13;;
27899;SDS011;15243;50.726;7.080;2023-07-22T15:47:10;8.18;;;4.70;;
27899;SDS011;15243;50.726;7.080;2023-07-22T15:49:37;4.35;;;3.72;;
27899;SDS011;15243;50.726;7.080;2023-07-22T15:52:04;4.90;;;4.15;;
27899;SDS011;15243;50.726;7.080;2023-07-22T15:54:31;5.43;;;3.85;;
27899;SDS011;15243;50.726;7.080;2023-07-22T15:56:58;6.78;;;5.20;;
27899;SDS011;15243;50.726;7.080;2023-07-22T15:59:25;6.90;;;4.60;;
27899;SDS011;15243;50.726;7.080;2023-07-22T16:01:53;6.97;;;4.28;;
27899;SDS011;15243;50.726;7.080;2023-07-22T16:04:20;4.70;;;3.80;;
27899;SDS011;15243;50.726;7.080;2023-07-22T16:06:47;7.05;;;4.95;;
27899;SDS011;15243;50.726;7.080;2023-07-22T16:09:14;5.25;;;4.10;;
27899;SDS011;15243;50.726;7.080;2023-07-22T16:11:41;7.25;;;4.35;;
27899;SDS011;15243;50.726;7.080;2023-07-22T16:14:08;5.95;;;3.90;;
27899;SDS011;15243;50.726;7.080;2023-07-22T16:16:36;7.57;;;4.10;;
27899;SDS011;15243;50.726;7.080;2023-07-22T16:19:03;7.38;;;4.32;;
27899;SDS011;15243;50.726;7.080;2023-07-22T16:21:30;7.53;;;4.78;;
27899;SDS011;15243;50.726;7.080;2023-07-22T16:23:57;9.40;;;4.80;;
27899;SDS011;15243;50.726;7.080;2023-07-22T16:26:24;7.88;;;5.00;;
27899;SDS011;15243;50.726;7.080;2023-07-22T16:28:51;6.07;;;4.82;;
27899;SDS011;15243;50.726;7.080;2023-07-22T16:31:18;7.82;;;4.70;;